Time;durP1;ratioP1;P1;durP2;ratioP2;P2;SDS_P1;SDS_P2;PMS_P1;PMS_P2;Temp;Humidity;BMP_temperature;BMP_pressure;BME280_temperature;BME280_humidity;BME280_pressure;Samples;Min_cycle;Max_cycle;Signal;HPM_P1;HPM_P2
2022/11/12 00:00:03;;;;;;;327.55;16.20;;;;;;;6.22;100.00;101756.00;10584268;28;20035;-71
2022/11/12 00:05:04;;;;;;;212.48;14.23;;;;;;;5.75;100.00;101657.19;10584185;27;20042;-71
2022/11/12 00:10:05;;;;;;;363.90;15.13;;;;;;;6.32;100.00;101749.16;10584096;28;20036;-71
2022/11/12 00:15:07;;;;;;;158.52;11.88;;;;;;;6.29;100.00;101762.56;10582091;28;20031;-71
2022/11/12 00:20:08;;;;;;;270.17;14.27;;;;;;;6.27;100.00;101768.88;10583863;27;20101;-71
2022/11/12 00:25:09;;;;;;;224.05;14.38;;;;;;;5.78;100.00;101691.25;10583742;28;20040;-71
2022/11/12 00:30:10;;;;;;;336.98;17.40;;;;;;;6.28;100.00;101775.84;10583222;27;20043;-71
2022/11/12 00:35:11;;;;;;;332.88;16.83;;;;;;;6.26;100.00;101794.44;10583091;28;20061;-71
2022/11/12 00:40:12;;;;;;;257.08;15.63;;;;;;;6.10;100.00;101777.94;10579489;28;20116;-71
2022/11/12 00:45:12;;;;;;;329.80;16.00;;;;;;;6.24;100.00;101796.31;10540811;28;20048;-71
2022/11/12 00:50:15;;;;;;;419.23;15.45;;;;;;;6.02;100.00;101781.09;10540257;28;20040;-71
2022/11/12 00:55:15;;;;;;;303.08;13.93;;;;;;;6.16;100.00;101793.34;10539462;28;20047;-71
2022/11/12 01:00:17;;;;;;;179.80;12.90;;;;;;;6.04;100.00;101780.97;10540599;28;20399;-70
2022/11/12 01:05:19;;;;;;;174.75;13.45;;;;;;;5.73;100.00;101749.56;10539715;28;20047;-71
2022/11/12 01:10:21;;;;;;;186.30;14.32;;;;;;;5.61;100.00;101710.84;10539350;28;20056;-71
2022/11/12 01:15:22;;;;;;;380.75;16.15;;;;;;;5.92;100.00;101759.75;10538707;28;20040;-71
2022/11/12 01:20:22;;;;;;;135.73;12.57;;;;;;;6.19;100.00;101801.06;10539142;28;20476;-71
2022/11/12 01:25:23;;;;;;;120.38;10.98;;;;;;;6.06;100.00;101787.00;10539318;28;20460;-71
2022/11/12 01:30:24;;;;;;;93.78;9.63;;;;;;;6.04;100.00;101773.06;10538527;28;20044;-71
2022/11/12 01:35:25;;;;;;;72.43;8.27;;;;;;;6.01;100.00;101789.94;10537894;28;20067;-71
2022/11/12 01:40:26;;;;;;;102.10;8.55;;;;;;;5.35;100.00;101706.44;10538312;28;20059;-70
2022/11/12 01:45:27;;;;;;;52.08;9.23;;;;;;;5.77;100.00;101781.84;10537166;28;20037;-71
2022/11/12 01:50:34;;;;;;;108.75;8.35;;;;;;;5.38;100.00;101737.88;10536540;28;20174;-71
2022/11/12 01:55:37;;;;;;;100.25;8.80;;;;;;;5.81;100.00;101815.00;10537176;28;20047;-71
2022/11/12 02:00:39;;;;;;;125.47;10.13;;;;;;;5.81;100.00;101812.38;10537315;28;20089;-71
2022/11/12 02:05:41;;;;;;;123.15;8.40;;;;;;;5.75;100.00;101796.94;10537045;28;20070;-71
2022/11/12 02:10:42;;;;;;;68.53;9.18;;;;;;;5.63;100.00;101774.03;10536499;28;20040;-71
2022/11/12 02:15:43;;;;;;;46.13;11.38;;;;;;;5.76;100.00;101795.16;10537967;28;20058;-71
2022/11/12 02:20:44;;;;;;;112.72;10.57;;;;;;;5.21;100.00;101724.00;10537334;28;20051;-71
2022/11/12 02:25:44;;;;;;;116.95;13.68;;;;;;;4.81;100.00;101654.63;10537460;28;20105;-70
2022/11/12 02:30:47;;;;;;;91.38;14.13;;;;;;;5.78;100.00;101814.38;10537321;28;20044;-71
2022/11/12 02:35:48;;;;;;;231.77;18.42;;;;;;;5.71;100.00;101812.13;10536058;28;20094;-71
2022/11/12 02:40:50;;;;;;;71.25;13.45;;;;;;;5.12;100.00;101729.03;10543201;28;20393;-71
2022/11/12 02:45:51;;;;;;;150.90;15.93;;;;;;;5.05;100.00;101728.56;10545056;28;20056;-71
2022/11/12 02:50:52;;;;;;;152.82;15.75;;;;;;;5.51;100.00;101828.38;10544656;28;20123;-71
2022/11/12 02:55:53;;;;;;;100.57;14.00;;;;;;;5.38;100.00;101822.19;10545479;28;20127;-71
2022/11/12 03:00:55;;;;;;;164.32;14.85;;;;;;;5.25;100.00;101820.34;10545289;28;20044;-70
2022/11/12 03:05:58;;;;;;;188.50;16.38;;;;;;;4.51;100.00;101718.78;10543627;28;20134;-71
2022/11/12 03:11:05;;;;;;;247.05;18.08;;;;;;;4.53;100.00;101731.88;10543807;28;20123;-71
2022/11/12 03:16:06;;;;;;;233.35;18.48;;;;;;;4.78;100.00;101792.56;10542885;28;20131;-70
2022/11/12 03:21:07;;;;;;;166.82;14.27;;;;;;;4.84;100.00;101798.41;10544048;28;20052;-71
2022/11/12 03:26:08;;;;;;;196.40;15.07;;;;;;;4.99;100.00;101821.97;10542921;28;20040;-71
2022/11/12 03:31:10;;;;;;;223.35;17.08;;;;;;;5.01;100.00;101817.47;10542860;28;20040;-71
2022/11/12 03:36:11;;;;;;;220.43;15.85;;;;;;;4.75;100.00;101749.78;10543839;28;20130;-71
2022/11/12 03:41:12;;;;;;;151.00;14.95;;;;;;;4.69;100.00;101739.63;10542712;28;20139;-71
2022/11/12 03:46:13;;;;;;;202.40;15.90;;;;;;;5.23;100.00;101824.00;10543275;28;20075;-71
2022/11/12 03:51:15;;;;;;;221.93;16.52;;;;;;;4.94;100.00;101771.41;10542532;28;20118;-71
2022/11/12 03:56:15;;;;;;;282.65;17.70;;;;;;;5.17;100.00;101805.97;10542010;28;20042;-71
2022/11/12 04:01:16;;;;;;;156.80;14.85;;;;;;;5.14;100.00;101807.00;10541749;28;20393;-73
2022/11/12 04:11:36;;;;;;;182.07;16.50;;;;;;;5.13;100.00;101812.38;10526888;28;20094;-71
2022/11/12 04:22:07;;;;;;;128.40;15.98;;;;;;;5.03;100.00;101826.13;10516395;28;20047;-72
2022/11/12 04:27:26;;;;;;;70.65;12.38;;;;;;;5.07;100.00;101823.31;10540329;28;20051;-72
2022/11/12 04:32:27;;;;;;;144.52;14.75;;;;;;;4.45;100.00;101718.31;10541276;28;20043;-71
2022/11/12 04:37:43;;;;;;;218.45;15.80;;;;;;;4.87;100.00;101800.84;10540897;28;20097;-72
2022/11/12 04:48:06;;;;;;;183.93;14.93;;;;;;;4.56;100.00;101755.34;10516037;28;20046;-72
2022/11/12 04:53:06;;;;;;;336.73;18.08;;;;;;;4.90;100.00;101853.31;10509503;28;20606;-71
2022/11/12 04:58:07;;;;;;;102.18;13.40;;;;;;;4.88;100.00;101861.31;10497951;28;20455;-71
2022/11/12 05:03:09;;;;;;;124.07;12.30;;;;;;;4.95;100.00;101856.50;10496908;28;20047;-72
2022/11/12 05:08:09;;;;;;;111.82;13.63;;;;;;;4.92;100.00;101839.13;10497098;28;20041;-72
2022/11/12 05:13:10;;;;;;;104.15;15.32;;;;;;;5.05;100.00;101852.34;10497017;28;20044;-72
2022/11/12 05:18:11;;;;;;;197.35;15.43;;;;;;;5.05;100.00;101836.56;10497238;28;20652;-72
2022/11/12 05:23:12;;;;;;;198.40;17.70;;;;;;;5.23;100.00;101853.00;10497166;28;20115;-72
2022/11/12 05:28:13;;;;;;;178.43;16.33;;;;;;;5.29;100.00;101855.25;10502354;28;20503;-71
2022/11/12 05:33:13;;;;;;;129.95;14.90;;;;;;;5.34;100.00;101842.63;10502790;28;20036;-71
2022/11/12 05:38:14;;;;;;;178.90;14.93;;;;;;;4.96;100.00;101764.22;10511150;28;20550;-73
2022/11/12 05:43:15;;;;;;;153.68;16.13;;;;;;;5.42;100.00;101840.38;10517479;28;20040;-71
2022/11/12 05:48:16;;;;;;;121.93;14.65;;;;;;;5.09;100.00;101774.84;10515020;28;20044;-73
2022/11/12 05:53:17;;;;;;;172.05;15.80;;;;;;;5.46;100.00;101820.75;10497299;28;20089;-71
2022/11/12 05:58:18;;;;;;;115.05;17.35;;;;;;;5.59;100.00;101835.78;10515358;28;20049;-71
2022/11/12 06:03:18;;;;;;;169.05;17.83;;;;;;;5.66;100.00;101834.47;10506927;28;20440;-72
2022/11/12 06:08:19;;;;;;;120.57;18.05;;;;;;;5.20;100.00;101758.34;10513827;28;20138;-72
2022/11/12 06:13:22;;;;;;;121.05;17.58;;;;;;;4.76;100.00;101656.72;10497714;28;20040;-72
2022/11/12 06:18:24;;;;;;;52.40;16.73;;;;;;;5.42;100.00;101742.84;10495697;28;20040;-72
2022/11/12 06:23:24;;;;;;;166.73;18.50;;;;;;;5.47;100.00;101756.59;10531088;28;20040;-74
2022/11/12 06:28:25;;;;;;;71.07;17.10;;;;;;;5.69;100.00;101797.34;10536781;28;20040;-72
2022/11/12 06:33:26;;;;;;;124.15;19.25;;;;;;;5.71;100.00;101804.22;10502581;28;20036;-72
2022/11/12 06:38:31;;;;;;;82.97;16.00;;;;;;;5.42;100.00;101753.41;10494494;28;20139;-72
2022/11/12 06:43:33;;;;;;;78.10;16.27;;;;;;;5.78;100.00;101831.03;10494387;28;20047;-74
2022/11/12 06:48:34;;;;;;;116.18;17.88;;;;;;;5.70;100.00;101810.41;10494025;28;20099;-72
2022/11/12 06:53:35;;;;;;;75.28;15.95;;;;;;;5.70;100.00;101807.78;10494533;28;20072;-72
2022/11/12 06:58:36;;;;;;;39.50;14.90;;;;;;;5.21;100.00;101726.66;10493784;28;20033;-72
2022/11/12 07:03:38;;;;;;;21.95;14.98;;;;;;;5.54;100.00;101743.00;10494199;28;20385;-72
2022/11/12 07:08:40;;;;;;;28.30;16.15;;;;;;;6.08;100.00;101814.16;10494592;28;20040;-72
2022/11/12 07:13:43;;;;;;;40.63;15.98;;;;;;;6.08;100.00;101798.31;10494333;28;20064;-72
2022/11/12 07:18:45;;;;;;;26.02;16.40;;;;;;;5.55;100.00;101723.59;10492911;28;20064;-72
2022/11/12 07:23:46;;;;;;;56.95;16.45;;;;;;;6.05;100.00;101811.72;10500202;28;20036;-74
2022/11/12 07:28:49;;;;;;;25.45;14.68;;;;;;;6.06;100.00;101816.03;10521719;28;20052;-72
2022/11/12 07:33:50;;;;;;;30.67;15.93;;;;;;;6.08;100.00;101829.97;10503956;28;20036;-72
2022/11/12 07:38:53;;;;;;;41.05;16.30;;;;;;;6.02;100.00;101810.13;10542150;28;20064;-72
2022/11/12 07:43:53;;;;;;;23.23;16.00;;;;;;;5.97;100.00;101777.09;10542470;28;20043;-72
2022/11/12 07:48:55;;;;;;;31.38;16.10;;;;;;;6.09;100.00;101808.75;10543468;28;20534;-72
2022/11/12 07:53:58;;;;;;;30.70;14.40;;;;;;;6.20;100.00;101809.84;10505007;28;20130;-72
2022/11/12 07:58:59;;;;;;;57.38;14.57;;;;;;;6.10;100.00;101806.94;10500921;28;20048;-72
2022/11/12 08:04:01;;;;;;;21.98;13.90;;;;;;;5.89;100.00;101777.56;10509286;28;20041;-72
2022/11/12 08:09:05;;;;;;;24.58;13.48;;;;;;;5.96;100.00;101792.06;10519175;28;20409;-74
2022/11/12 08:14:05;;;;;;;44.23;15.50;;;;;;;6.12;100.00;101807.72;10538701;28;20106;-73
2022/11/12 08:19:06;;;;;;;20.92;14.93;;;;;;;5.51;100.00;101711.56;10515093;28;20084;-73
2022/11/12 08:24:07;;;;;;;40.22;15.13;;;;;;;6.14;100.00;101814.56;10504670;28;20488;-73
2022/11/12 08:29:08;;;;;;;50.03;13.75;;;;;;;5.59;100.00;101720.63;10533662;28;20046;-73
2022/11/12 08:34:11;;;;;;;24.85;14.02;;;;;;;6.22;100.00;101821.94;10517494;28;20060;-72
2022/11/12 08:39:12;;;;;;;21.63;14.32;;;;;;;6.27;100.00;101817.22;10500416;28;20052;-72
2022/11/12 08:44:13;;;;;;;18.10;12.77;;;;;;;5.32;100.00;101646.88;10507934;28;20040;-73
2022/11/12 08:49:14;;;;;;;19.50;13.60;;;;;;;5.56;100.00;101643.56;10540003;28;20507;-73
2022/11/12 08:54:15;;;;;;;20.95;14.40;;;;;;;6.54;100.00;101761.69;10539644;28;20048;-73
2022/11/12 08:59:16;;;;;;;27.35;14.43;;;;;;;6.74;100.00;101762.09;10539662;28;20571;-72
2022/11/12 09:04:17;;;;;;;27.98;17.80;;;;;;;6.55;100.00;101713.22;10507311;28;20127;-73
2022/11/12 09:09:17;;;;;;;22.67;16.45;;;;;;;7.21;100.00;101787.78;10497280;28;20045;-73
2022/11/12 09:14:18;;;;;;;29.02;17.98;;;;;;;7.35;100.00;101770.88;10497038;28;20462;-73
2022/11/12 09:19:19;;;;;;;44.55;20.70;;;;;;;7.69;100.00;101777.19;10496633;28;20041;-73
2022/11/12 09:24:20;;;;;;;33.83;18.23;;;;;;;7.87;100.00;101759.09;10495398;28;20529;-72
2022/11/12 09:29:21;;;;;;;31.13;19.85;;;;;;;7.98;100.00;101756.47;10497074;28;20036;-73
2022/11/12 09:34:21;;;;;;;40.03;26.58;;;;;;;7.86;100.00;101703.63;10496781;28;20535;-73
2022/11/12 09:39:22;;;;;;;48.38;29.08;;;;;;;8.33;100.00;101742.34;10497141;28;20087;-73
2022/11/12 09:44:23;;;;;;;46.63;28.23;;;;;;;8.54;100.00;101761.03;10495952;28;20040;-73
2022/11/12 09:49:32;;;;;;;46.60;28.58;;;;;;;8.65;100.00;101758.41;10496670;28;20493;-73
2022/11/12 09:54:35;;;;;;;45.88;26.85;;;;;;;8.84;100.00;101762.22;10503111;28;20036;-72
2022/11/12 09:59:40;;;;;;;43.33;27.00;;;;;;;8.41;100.00;101647.28;10502172;28;20114;-72
2022/11/12 10:04:52;;;;;;;;;;;;;;;9.23;100.00;101750.22;10510277;28;20052;-71
2022/11/12 10:10:08;;;;;;;45.90;29.40;;;;;;;9.17;100.00;101745.44;10524463;28;19916;-72
2022/11/12 10:21:20;;;;;;;36.42;22.08;;;;;;;8.89;100.00;101702.59;10514057;28;20121;-73
2022/11/12 10:26:24;;;;;;;28.13;19.02;;;;;;;9.01;100.00;101739.69;10514442;28;20075;-72
2022/11/12 10:31:25;;;;;;;34.22;19.25;;;;;;;9.06;100.00;101732.19;10507353;28;20122;-71
2022/11/12 10:36:35;;;;;;;27.63;16.45;;;;;;;9.01;100.00;101698.13;10507545;28;20048;-71
2022/11/12 10:41:36;;;;;;;28.20;17.85;;;;;;;9.23;100.00;101736.13;10510940;28;20056;-71
2022/11/12 10:46:37;;;;;;;32.58;18.45;;;;;;;9.14;100.00;101709.41;10504537;28;20587;-72
2022/11/12 10:51:39;;;;;;;34.28;19.00;;;;;;;9.21;100.00;101728.28;10536822;28;20040;-72
2022/11/12 10:56:40;;;;;;;36.70;17.83;;;;;;;9.06;100.00;101706.56;10514003;28;20040;-72
2022/11/12 11:01:42;;;;;;;29.25;18.60;;;;;;;9.16;100.00;101721.72;10501471;28;20047;-71
2022/11/12 11:06:43;;;;;;;29.95;18.63;;;;;;;8.96;100.00;101702.94;10507096;28;20506;-71
2022/11/12 11:11:52;;;;;;;49.47;28.70;;;;;;;8.94;100.00;101707.50;10525063;28;20040;-71
2022/11/12 11:16:57;;;;;;;55.95;34.88;;;;;;;9.00;100.00;101719.44;10515798;28;20040;-71
2022/11/12 11:22:18;;;;;;;35.60;21.83;;;;;;;9.11;100.00;101727.38;10521881;28;20078;-71
2022/11/12 11:27:28;;;;;;;36.53;20.38;;;;;;;9.06;100.00;101716.28;10539618;28;20097;-71
2022/11/12 11:32:47;;;;;;;33.00;18.80;;;;;;;8.68;100.00;101659.28;10508730;28;20459;-71
2022/11/12 11:38:06;;;;;;;34.70;19.00;;;;;;;9.13;100.00;101728.94;10501685;28;20048;-71
2022/11/12 11:43:32;;;;;;;33.75;18.67;;;;;;;9.18;100.00;101719.75;10501466;28;20040;-72
2022/11/12 11:48:57;;;;;;;29.92;17.48;;;;;;;8.78;100.00;101659.38;10502678;28;20048;-71
2022/11/12 11:54:36;;;;;;;31.45;17.40;;;;;;;9.19;100.00;101710.84;10543331;28;20070;-71
2022/11/12 11:59:52;;;;;;;43.22;18.00;;;;;;;9.16;100.00;101713.75;10506796;28;20058;-71
2022/11/12 12:04:56;;;;;;;25.88;15.80;;;;;;;9.17;100.00;101712.78;10519946;28;20438;-71
2022/11/12 12:09:57;;;;;;;24.77;15.63;;;;;;;9.11;100.00;101719.41;10509490;28;20048;-71
2022/11/12 12:15:03;;;;;;;26.83;16.92;;;;;;;9.12;100.00;101715.78;10501193;28;20047;-71
2022/11/12 12:20:22;;;;;;;23.17;14.95;;;;;;;9.00;100.00;101696.41;10517253;28;20049;-71
2022/11/12 12:25:29;;;;;;;27.15;14.60;;;;;;;8.94;100.00;101691.63;10537371;28;20086;-71
2022/11/12 12:30:33;;;;;;;21.58;14.45;;;;;;;8.48;100.00;101621.16;10540628;28;20040;-71
2022/11/12 12:36:00;;;;;;;21.75;13.70;;;;;;;9.05;100.00;101719.91;10499922;28;20041;-72
2022/11/12 12:41:26;;;;;;;21.33;13.55;;;;;;;8.89;100.00;101705.25;10499528;28;20057;-71
2022/11/12 12:46:31;;;;;;;21.80;13.52;;;;;;;8.88;100.00;101708.00;10530453;28;20072;-71
2022/11/12 12:51:34;;;;;;;20.42;12.45;;;;;;;8.08;100.00;101566.06;10540857;28;20070;-71
2022/11/12 12:56:34;;;;;;;23.10;14.32;;;;;;;8.83;100.00;101699.63;10522856;28;20044;-71
2022/11/12 13:01:36;;;;;;;28.63;14.65;;;;;;;8.86;100.00;101709.97;10511543;28;20041;-71
2022/11/12 13:06:46;;;;;;;23.25;15.18;;;;;;;8.91;100.00;101707.75;10514833;28;20051;-71
2022/11/12 13:17:12;;;;;;;19.67;12.15;;;;;;;8.38;100.00;101647.53;10496889;28;20060;-71
2022/11/12 13:22:16;;;;;;;23.70;13.10;;;;;;;8.80;100.00;101727.19;10497594;28;20040;-71
2022/11/12 13:27:39;;;;;;;21.48;13.80;;;;;;;8.81;100.00;101723.56;10497809;28;20428;-72
2022/11/12 13:32:56;;;;;;;20.53;13.17;;;;;;;8.77;100.00;101716.00;10497417;28;20480;-72
2022/11/12 13:38:11;;;;;;;18.58;12.20;;;;;;;8.73;100.00;101714.53;10513020;28;20029;-72
2022/11/12 13:43:14;;;;;;;19.85;11.88;;;;;;;8.73;100.00;101706.59;10511382;28;20491;-71
2022/11/12 13:48:38;;;;;;;19.90;12.98;;;;;;;8.55;100.00;101663.88;10512082;28;20064;-71
2022/11/12 13:53:39;;;;;;;19.98;12.38;;;;;;;8.56;100.00;101669.06;10494301;28;20055;-71
2022/11/12 13:58:42;;;;;;;17.15;11.75;;;;;;;8.39;100.00;101646.56;10496691;28;20504;-69
2022/11/12 14:03:49;;;;;;;19.42;12.07;;;;;;;8.67;100.00;101692.91;10502746;28;20119;-73
2022/11/12 14:09:11;;;;;;;16.70;10.95;;;;;;;8.72;100.00;101696.97;10510915;28;20044;-72
2022/11/12 14:14:23;;;;;;;21.35;12.45;;;;;;;8.72;100.00;101684.56;10509212;28;20170;-73
2022/11/12 14:19:32;;;;;;;22.73;15.15;;;;;;;8.71;100.00;101690.00;10508155;28;20040;-72
2022/11/12 14:24:34;;;;;;;24.88;14.18;;;;;;;8.50;100.00;101666.06;10495034;28;20040;-69
2022/11/12 14:29:34;;;;;;;21.27;13.63;;;;;;;8.66;100.00;101699.13;10514220;28;20041;-71
2022/11/12 14:34:35;;;;;;;22.45;14.18;;;;;;;8.56;100.00;101682.31;10511530;28;20048;-70
2022/11/12 14:39:41;;;;;;;25.02;14.00;;;;;;;8.52;100.00;101683.50;10503399;28;20059;-70
2022/11/12 14:44:42;;;;;;;24.02;14.27;;;;;;;8.64;100.00;101698.41;10502951;28;20122;-71
2022/11/12 14:49:45;;;;;;;22.00;14.43;;;;;;;8.61;100.00;101703.13;10517218;28;20121;-71
2022/11/12 14:55:04;;;;;;;21.55;14.40;;;;;;;8.69;100.00;101716.59;10518718;28;20036;-71
2022/11/12 15:00:18;;;;;;;26.58;14.65;;;;;;;8.68;100.00;101725.53;10517758;28;20089;-70
2022/11/12 15:05:20;;;;;;;21.93;14.77;;;;;;;8.58;100.00;101728.03;10515302;28;20045;-68
2022/11/12 15:10:35;;;;;;;21.88;14.57;;;;;;;8.44;100.00;101712.41;10515042;28;20054;-69
2022/11/12 15:15:39;;;;;;;22.42;15.25;;;;;;;8.41;100.00;101689.66;10528697;28;20028;-71
2022/11/12 15:20:41;;;;;;;26.27;13.98;;;;;;;8.40;100.00;101693.25;10516825;28;20051;-70
2022/11/12 15:25:42;;;;;;;24.40;14.93;;;;;;;8.69;100.00;101724.56;10525707;28;20055;-70
2022/11/12 15:31:04;;;;;;;23.10;15.10;;;;;;;8.69;100.00;101706.84;10500702;28;20033;-70
2022/11/12 15:36:17;;;;;;;27.15;15.15;;;;;;;8.18;100.00;101619.13;10540015;28;20071;-70
2022/11/12 15:41:28;;;;;;;25.27;15.50;;;;;;;8.56;100.00;101677.00;10541946;28;20159;-71
2022/11/12 15:46:29;;;;;;;27.17;16.00;;;;;;;8.65;100.00;101683.38;10505590;28;20136;-70
2022/11/12 15:51:29;;;;;;;26.42;15.57;;;;;;;8.58;100.00;101675.06;10498030;28;20123;-71
2022/11/12 15:56:30;;;;;;;25.67;16.27;;;;;;;8.59;100.00;101666.16;10498651;28;20090;-71
2022/11/12 16:01:31;;;;;;;26.02;15.50;;;;;;;8.60;100.00;101659.06;10497808;28;20048;-71
2022/11/12 16:06:32;;;;;;;21.48;15.35;;;;;;;8.58;100.00;101672.41;10497584;28;20040;-70
2022/11/12 16:11:36;;;;;;;36.55;18.00;;;;;;;8.40;100.00;101628.88;10505491;28;20058;-71
2022/11/12 16:16:38;;;;;;;28.25;16.98;;;;;;;7.68;100.00;101491.66;10531060;28;20043;-71
2022/11/12 16:21:39;;;;;;;29.70;17.45;;;;;;;8.58;100.00;101637.97;10518531;28;20064;-71
2022/11/12 16:26:40;;;;;;;28.63;18.17;;;;;;;8.53;100.00;101642.81;10514486;28;20045;-71
2022/11/12 16:31:43;;;;;;;27.08;17.70;;;;;;;8.40;100.00;101610.31;10518509;28;20085;-72
2022/11/12 16:36:46;;;;;;;26.92;18.58;;;;;;;8.53;100.00;101626.94;10523415;28;20036;-72
2022/11/12 16:41:47;;;;;;;30.25;18.80;;;;;;;8.47;100.00;101616.84;10461849;28;1593279;-72
2022/11/12 16:46:47;;;;;;;37.20;19.92;;;;;;;8.39;100.00;101598.91;10516667;28;20143;-72
2022/11/12 16:51:49;;;;;;;31.20;18.02;;;;;;;8.52;100.00;101606.69;10514238;28;20127;-72
2022/11/12 16:56:50;;;;;;;30.13;18.33;;;;;;;8.05;100.00;101536.34;10522731;28;20119;-71
2022/11/12 17:01:50;;;;;;;29.52;18.38;;;;;;;7.55;100.00;101462.69;10512281;28;20024;-71
2022/11/12 17:06:51;;;;;;;30.25;19.85;;;;;;;8.19;100.00;101559.91;10513582;28;20503;-72
2022/11/12 17:11:52;;;;;;;33.78;20.38;;;;;;;8.39;100.00;101595.41;10515709;28;20081;-71
2022/11/12 17:16:53;;;;;;;31.50;19.30;;;;;;;8.47;100.00;101600.09;10516985;28;20043;-72
2022/11/12 17:21:53;;;;;;;29.27;19.13;;;;;;;8.54;100.00;101615.38;10514443;28;20029;-72
2022/11/12 17:26:54;;;;;;;36.33;21.45;;;;;;;8.50;100.00;101598.03;10512207;28;20039;-71
2022/11/12 17:31:55;;;;;;;34.15;21.55;;;;;;;7.96;100.00;101482.38;10511575;28;20049;-72
2022/11/12 17:36:56;;;;;;;33.15;19.10;;;;;;;8.65;100.00;101574.78;10512544;28;20105;-71
2022/11/12 17:41:57;;;;;;;33.75;19.23;;;;;;;8.02;100.00;101450.13;10513882;28;20060;-71
2022/11/12 17:46:58;;;;;;;33.58;20.48;;;;;;;8.62;100.00;101549.38;10521000;28;20048;-72
2022/11/12 17:51:59;;;;;;;33.58;20.52;;;;;;;8.58;100.00;101550.56;10523159;28;20502;-72
2022/11/12 17:56:59;;;;;;;30.63;19.50;;;;;;;8.63;100.00;101552.84;10508071;28;20040;-73
2022/11/12 18:02:00;;;;;;;34.80;21.45;;;;;;;7.83;100.00;101426.09;10508410;28;20044;-72
2022/11/12 18:07:01;;;;;;;33.42;21.88;;;;;;;8.11;100.00;101449.38;10515163;28;20047;-72
2022/11/12 18:12:02;;;;;;;32.80;20.45;;;;;;;8.08;100.00;101443.50;10514149;28;20067;-72
2022/11/12 18:17:03;;;;;;;35.42;22.08;;;;;;;8.38;100.00;101499.25;10510779;28;20482;-72
2022/11/12 18:22:04;;;;;;;36.30;20.98;;;;;;;7.96;100.00;101432.09;10517459;28;20443;-72
2022/11/12 18:27:05;;;;;;;38.00;22.42;;;;;;;8.56;100.00;101526.03;10521525;28;20044;-72
2022/11/12 18:32:07;;;;;;;35.78;21.40;;;;;;;8.10;100.00;101449.50;10515800;28;20048;-72
2022/11/12 18:37:08;;;;;;;41.33;21.88;;;;;;;8.32;100.00;101483.84;10513995;28;20416;-72
2022/11/12 18:42:09;;;;;;;35.25;21.63;;;;;;;8.52;100.00;101516.66;10506917;28;20063;-72
2022/11/12 18:47:09;;;;;;;36.42;22.02;;;;;;;8.22;100.00;101473.13;10502746;28;20097;-73
2022/11/12 18:52:10;;;;;;;37.17;21.75;;;;;;;8.44;100.00;101511.16;10512466;28;20036;-71
2022/11/12 18:57:11;;;;;;;34.55;20.88;;;;;;;8.17;100.00;101467.41;10502102;28;20044;-72
2022/11/12 19:02:12;;;;;;;36.67;23.42;;;;;;;7.79;100.00;101412.28;10510502;28;20050;-72
2022/11/12 19:07:13;;;;;;;40.10;23.35;;;;;;;8.24;100.00;101507.44;10514637;28;20489;-71
2022/11/12 19:12:14;;;;;;;46.95;27.52;;;;;;;7.40;100.00;101422.44;10514085;28;20040;-71
2022/11/12 19:17:15;;;;;;;44.17;26.42;;;;;;;7.66;100.00;101505.00;10515963;28;20055;-71
2022/11/12 19:22:16;;;;;;;43.92;28.42;;;;;;;7.58;100.00;101488.91;10523317;28;20118;-70
2022/11/12 19:27:17;;;;;;;45.53;27.85;;;;;;;7.61;100.00;101509.81;10535600;28;20033;-71
2022/11/12 19:32:17;;;;;;;47.08;27.52;;;;;;;7.50;100.00;101486.00;10511430;28;20110;-71
2022/11/12 19:37:18;;;;;;;40.10;26.30;;;;;;;7.13;100.00;101437.81;10509587;28;20035;-71
2022/11/12 19:42:19;;;;;;;40.70;26.98;;;;;;;7.44;100.00;101487.31;10586363;28;20066;-71
2022/11/12 19:47:20;;;;;;;42.08;26.30;;;;;;;7.40;100.00;101474.47;10584817;28;20134;-70
2022/11/12 19:52:21;;;;;;;43.85;26.65;;;;;;;6.87;100.00;101377.25;10585438;28;20039;-71
2022/11/12 19:57:22;;;;;;;45.03;26.67;;;;;;;7.10;100.00;101404.53;10532364;28;20040;-70
2022/11/12 20:02:22;;;;;;;41.88;25.70;;;;;;;7.26;100.00;101433.25;10508167;28;20496;-70
2022/11/12 20:07:23;;;;;;;42.38;26.02;;;;;;;7.47;100.00;101450.06;10514637;28;20496;-71
2022/11/12 20:12:24;;;;;;;38.80;25.25;;;;;;;7.33;100.00;101421.25;10519004;28;20074;-72
2022/11/12 20:17:25;;;;;;;40.50;25.67;;;;;;;7.44;100.00;101429.16;10517727;28;20045;-71
2022/11/12 20:22:29;;;;;;;39.92;25.40;;;;;;;7.38;100.00;101423.50;10515130;28;20507;-72
2022/11/12 20:27:30;;;;;;;;;;;;;;;7.45;100.00;101422.06;10511910;28;20052;-71
2022/11/12 20:32:31;;;;;;;41.33;24.80;;;;;;;7.12;100.00;101407.03;10509542;28;19920;-69
2022/11/12 20:37:32;;;;;;;36.85;23.55;;;;;;;7.04;100.00;101420.88;10516534;28;20036;-69
2022/11/12 20:42:33;;;;;;;37.45;24.17;;;;;;;6.84;100.00;101411.81;10531040;28;20146;-69
2022/11/12 20:47:33;;;;;;;37.53;23.73;;;;;;;6.60;100.00;101406.63;10499006;28;20048;-69
2022/11/12 20:52:34;;;;;;;39.35;25.83;;;;;;;6.50;100.00;101405.66;10499343;28;20048;-69
2022/11/12 20:57:35;;;;;;;43.33;25.52;;;;;;;5.98;100.00;101315.38;10507803;28;20036;-69
2022/11/12 21:02:36;;;;;;;39.70;24.75;;;;;;;6.66;100.00;101410.59;10498639;28;20048;-69
2022/11/12 21:07:36;;;;;;;41.58;26.02;;;;;;;6.63;100.00;101396.66;10497651;28;20084;-69
2022/11/12 21:12:37;;;;;;;38.45;24.52;;;;;;;6.30;100.00;101355.19;10498054;28;20047;-69
2022/11/12 21:17:38;;;;;;;42.35;25.30;;;;;;;6.44;100.00;101387.63;10499141;28;20048;-69
2022/11/12 21:22:39;;;;;;;40.05;24.23;;;;;;;6.43;100.00;101378.00;10498095;28;20049;-69
2022/11/12 21:27:39;;;;;;;42.40;25.65;;;;;;;6.71;100.00;101396.09;10497274;28;20049;-69
2022/11/12 21:32:40;;;;;;;40.85;24.90;;;;;;;6.58;100.00;101361.00;10497161;28;20048;-69
2022/11/12 21:37:41;;;;;;;36.72;24.00;;;;;;;6.80;100.00;101398.03;10496145;28;20047;-69
2022/11/12 21:42:43;;;;;;;41.75;24.17;;;;;;;6.82;100.00;101390.84;10506819;28;20063;-69
2022/11/12 21:47:44;;;;;;;37.83;24.50;;;;;;;6.84;100.00;101386.25;10494702;28;20484;-69
2022/11/12 21:52:45;;;;;;;40.33;23.42;;;;;;;6.84;100.00;101382.78;10496573;28;20123;-69
2022/11/12 21:57:45;;;;;;;35.47;23.83;;;;;;;6.81;100.00;101369.81;10496198;28;20045;-69
2022/11/12 22:02:46;;;;;;;37.95;22.52;;;;;;;6.92;100.00;101393.59;10495784;28;20047;-69
2022/11/12 22:07:47;;;;;;;35.20;21.08;;;;;;;6.36;100.00;101296.66;10506944;28;20068;-69
2022/11/12 22:12:48;;;;;;;39.53;23.65;;;;;;;6.88;100.00;101378.09;10495483;28;20040;-69
2022/11/12 22:17:49;;;;;;;34.67;21.50;;;;;;;6.86;100.00;101373.78;10495761;28;20040;-69
2022/11/12 22:22:51;;;;;;;45.75;23.17;;;;;;;6.73;100.00;101370.41;10496615;28;20131;-69
2022/11/12 22:27:52;;;;;;;35.65;22.42;;;;;;;6.66;100.00;101357.78;10493839;28;20052;-69
2022/11/12 22:32:52;;;;;;;43.90;24.08;;;;;;;6.57;100.00;101378.66;10494874;28;20067;-69
2022/11/12 22:37:53;;;;;;;38.05;22.15;;;;;;;5.34;100.00;101194.44;10495381;28;20166;-69
2022/11/12 22:42:54;;;;;;;37.03;24.13;;;;;;;6.27;100.00;101360.69;10495594;28;20077;-69
2022/11/12 22:47:58;;;;;;;42.03;25.60;;;;;;;5.65;100.00;101287.91;10494788;28;20099;-69
2022/11/12 22:52:58;;;;;;;39.75;24.52;;;;;;;6.01;100.00;101365.25;10494581;28;20048;-69
2022/11/12 22:57:59;;;;;;;34.05;21.85;;;;;;;5.88;100.00;101357.38;10501200;28;20036;-69
2022/11/12 23:03:00;;;;;;;36.67;24.60;;;;;;;5.72;100.00;101360.31;10503297;28;20043;-70